Event-Kalender
Terminkalender Drucken Email help
Jahresansicht Monatsansicht Wochenansicht Heute Suche Zum ausgwählten Monat wechseln
Termine für
Donnerstag, 15. Juni 2017



JEvents v1.5.5e   Copyright © 2006-2011

Zufallsbild

Aktuelle Termine

Mo Di Mi Do Fr Sa So
29 30 31 1 2 3 4
5 6 7 8 9 10 11
12 13 14 15 16 17 18
19 20 21 22 23 24 25
26 27 28 29 30 1 2

Pilotenwetter

[source: ADDS]
METAR
EDDH 231820Z 25010G22KT 210V290 9999 FEW040 10/06 Q1004 NOSIG =
TAF
TAF EDDH 231700Z 2318/2424 25015G30KT 9999 BKN030 BECMG 2318/2321 22010KT BECMG 2405/2407 22005KT TEMPO 2408/2416 4500 -RADZ BKN009 PROB30 TEMPO 2408/2412 2500 RADZ BKN004 =